sensor_id;sensor_type;location;lat;lon;timestamp;P1;durP1;ratioP1;P2;durP2;ratioP2
14892;SDS011;7538;53.626;9.906;2022-11-20T00:00:38;6.20;;;3.50;;
14892;SDS011;7538;53.626;9.906;2022-11-20T00:03:05;5.77;;;4.30;;
14892;SDS011;7538;53.626;9.906;2022-11-20T00:05:32;5.13;;;3.93;;
14892;SDS011;7538;53.626;9.906;2022-11-20T00:08:00;5.67;;;4.40;;
14892;SDS011;7538;53.626;9.906;2022-11-20T00:10:28;5.27;;;3.80;;
14892;SDS011;7538;53.626;9.906;2022-11-20T00:12:54;6.67;;;4.80;;
14892;SDS011;7538;53.626;9.906;2022-11-20T00:15:21;6.07;;;4.20;;
14892;SDS011;7538;53.626;9.906;2022-11-20T00:17:48;4.40;;;3.67;;
14892;SDS011;7538;53.626;9.906;2022-11-20T00:20:15;6.17;;;3.90;;
14892;SDS011;7538;53.626;9.906;2022-11-20T00:22:42;5.23;;;4.17;;
14892;SDS011;7538;53.626;9.906;2022-11-20T00:25:10;6.80;;;4.50;;
14892;SDS011;7538;53.626;9.906;2022-11-20T00:27:37;5.13;;;3.60;;
14892;SDS011;7538;53.626;9.906;2022-11-20T00:30:04;4.67;;;3.80;;
14892;SDS011;7538;53.626;9.906;2022-11-20T00:32:33;4.33;;;3.20;;
14892;SDS011;7538;53.626;9.906;2022-11-20T00:35:01;6.30;;;3.57;;
14892;SDS011;7538;53.626;9.906;2022-11-20T00:37:27;5.60;;;3.80;;
14892;SDS011;7538;53.626;9.906;2022-11-20T00:39:54;5.57;;;4.27;;
14892;SDS011;7538;53.626;9.906;2022-11-20T00:42:22;4.20;;;3.67;;
14892;SDS011;7538;53.626;9.906;2022-11-20T00:44:49;5.17;;;3.47;;
14892;SDS011;7538;53.626;9.906;2022-11-20T00:47:16;5.83;;;3.63;;
14892;SDS011;7538;53.626;9.906;2022-11-20T00:49:43;4.63;;;3.63;;
14892;SDS011;7538;53.626;9.906;2022-11-20T00:52:09;4.57;;;3.43;;
14892;SDS011;7538;53.626;9.906;2022-11-20T00:54:36;5.93;;;3.60;;
14892;SDS011;7538;53.626;9.906;2022-11-20T00:57:03;4.23;;;3.40;;
14892;SDS011;7538;53.626;9.906;2022-11-20T00:59:31;5.37;;;3.40;;
14892;SDS011;7538;53.626;9.906;2022-11-20T01:01:58;5.63;;;3.50;;
14892;SDS011;7538;53.626;9.906;2022-11-20T01:04:25;4.37;;;3.67;;
14892;SDS011;7538;53.626;9.906;2022-11-20T01:06:51;4.83;;;3.40;;
14892;SDS011;7538;53.626;9.906;2022-11-20T01:09:18;4.63;;;3.23;;
14892;SDS011;7538;53.626;9.906;2022-11-20T01:11:45;5.27;;;3.90;;
14892;SDS011;7538;53.626;9.906;2022-11-20T01:14:13;4.57;;;3.20;;
14892;SDS011;7538;53.626;9.906;2022-11-20T01:16:44;5.17;;;3.37;;
14892;SDS011;7538;53.626;9.906;2022-11-20T01:19:13;4.90;;;3.67;;
14892;SDS011;7538;53.626;9.906;2022-11-20T01:21:42;6.53;;;3.43;;
14892;SDS011;7538;53.626;9.906;2022-11-20T01:24:11;4.10;;;3.33;;
14892;SDS011;7538;53.626;9.906;2022-11-20T01:26:40;3.97;;;3.57;;
14892;SDS011;7538;53.626;9.906;2022-11-20T01:29:08;4.33;;;3.67;;
14892;SDS011;7538;53.626;9.906;2022-11-20T01:31:39;3.83;;;3.10;;
14892;SDS011;7538;53.626;9.906;2022-11-20T01:34:09;5.60;;;3.80;;
14892;SDS011;7538;53.626;9.906;2022-11-20T01:36:37;5.93;;;3.63;;
14892;SDS011;7538;53.626;9.906;2022-11-20T01:39:05;3.33;;;2.90;;
14892;SDS011;7538;53.626;9.906;2022-11-20T01:41:33;5.33;;;3.27;;
14892;SDS011;7538;53.626;9.906;2022-11-20T01:44:18;3.50;;;3.07;;
14892;SDS011;7538;53.626;9.906;2022-11-20T01:46:49;4.37;;;3.67;;
14892;SDS011;7538;53.626;9.906;2022-11-20T01:49:23;6.70;;;4.53;;
14892;SDS011;7538;53.626;9.906;2022-11-20T01:51:54;6.97;;;4.40;;
14892;SDS011;7538;53.626;9.906;2022-11-20T01:54:25;8.67;;;4.50;;
14892;SDS011;7538;53.626;9.906;2022-11-20T01:56:57;7.00;;;4.17;;
14892;SDS011;7538;53.626;9.906;2022-11-20T01:59:26;4.73;;;3.93;;
14892;SDS011;7538;53.626;9.906;2022-11-20T02:01:55;6.30;;;3.83;;
14892;SDS011;7538;53.626;9.906;2022-11-20T02:04:24;5.33;;;3.90;;
14892;SDS011;7538;53.626;9.906;2022-11-20T02:06:51;9.20;;;4.43;;
14892;SDS011;7538;53.626;9.906;2022-11-20T02:09:25;4.40;;;4.00;;
14892;SDS011;7538;53.626;9.906;2022-11-20T02:11:52;4.67;;;3.50;;
14892;SDS011;7538;53.626;9.906;2022-11-20T02:14:19;6.67;;;3.70;;
14892;SDS011;7538;53.626;9.906;2022-11-20T02:16:47;4.97;;;3.90;;
14892;SDS011;7538;53.626;9.906;2022-11-20T02:19:17;5.03;;;3.87;;
14892;SDS011;7538;53.626;9.906;2022-11-20T02:21:51;4.70;;;3.30;;
14892;SDS011;7538;53.626;9.906;2022-11-20T02:24:27;5.33;;;3.90;;
14892;SDS011;7538;53.626;9.906;2022-11-20T02:26:56;4.97;;;3.47;;
14892;SDS011;7538;53.626;9.906;2022-11-20T02:29:26;5.17;;;3.70;;
14892;SDS011;7538;53.626;9.906;2022-11-20T02:32:03;4.70;;;3.57;;
14892;SDS011;7538;53.626;9.906;2022-11-20T02:34:30;6.20;;;3.67;;
14892;SDS011;7538;53.626;9.906;2022-11-20T02:36:57;4.27;;;3.70;;
14892;SDS011;7538;53.626;9.906;2022-11-20T02:39:26;5.03;;;3.67;;
14892;SDS011;7538;53.626;9.906;2022-11-20T02:41:55;3.50;;;3.20;;
14892;SDS011;7538;53.626;9.906;2022-11-20T02:44:22;5.43;;;3.40;;
14892;SDS011;7538;53.626;9.906;2022-11-20T02:46:50;6.47;;;4.20;;
14892;SDS011;7538;53.626;9.906;2022-11-20T02:49:17;6.77;;;5.00;;
14892;SDS011;7538;53.626;9.906;2022-11-20T02:51:43;4.67;;;3.63;;
14892;SDS011;7538;53.626;9.906;2022-11-20T02:54:10;10.97;;;4.23;;
14892;SDS011;7538;53.626;9.906;2022-11-20T02:56:38;5.90;;;3.90;;
14892;SDS011;7538;53.626;9.906;2022-11-20T02:59:05;4.93;;;3.40;;
14892;SDS011;7538;53.626;9.906;2022-11-20T03:01:32;4.40;;;3.33;;
14892;SDS011;7538;53.626;9.906;2022-11-20T03:03:59;5.53;;;4.13;;
14892;SDS011;7538;53.626;9.906;2022-11-20T03:06:26;5.07;;;3.47;;
14892;SDS011;7538;53.626;9.906;2022-11-20T03:08:53;6.40;;;4.40;;
14892;SDS011;7538;53.626;9.906;2022-11-20T03:11:20;7.53;;;4.07;;
14892;SDS011;7538;53.626;9.906;2022-11-20T03:13:48;7.80;;;3.90;;
14892;SDS011;7538;53.626;9.906;2022-11-20T03:16:15;5.10;;;3.47;;
14892;SDS011;7538;53.626;9.906;2022-11-20T03:18:44;4.90;;;4.00;;
14892;SDS011;7538;53.626;9.906;2022-11-20T03:21:11;4.80;;;3.60;;
14892;SDS011;7538;53.626;9.906;2022-11-20T03:23:39;4.97;;;3.70;;
14892;SDS011;7538;53.626;9.906;2022-11-20T03:26:10;4.17;;;3.43;;
14892;SDS011;7538;53.626;9.906;2022-11-20T03:28:39;5.47;;;3.80;;
14892;SDS011;7538;53.626;9.906;2022-11-20T03:31:09;4.07;;;3.40;;
14892;SDS011;7538;53.626;9.906;2022-11-20T03:33:37;5.87;;;3.83;;
14892;SDS011;7538;53.626;9.906;2022-11-20T03:36:04;6.23;;;4.17;;
14892;SDS011;7538;53.626;9.906;2022-11-20T03:38:33;4.67;;;4.07;;
14892;SDS011;7538;53.626;9.906;2022-11-20T03:41:00;4.83;;;3.80;;
14892;SDS011;7538;53.626;9.906;2022-11-20T03:43:27;6.33;;;4.03;;
14892;SDS011;7538;53.626;9.906;2022-11-20T03:45:54;5.63;;;3.53;;
14892;SDS011;7538;53.626;9.906;2022-11-20T03:48:22;7.07;;;4.00;;
14892;SDS011;7538;53.626;9.906;2022-11-20T03:50:49;4.33;;;3.90;;
14892;SDS011;7538;53.626;9.906;2022-11-20T03:53:16;5.10;;;3.80;;
14892;SDS011;7538;53.626;9.906;2022-11-20T03:55:43;4.23;;;3.77;;
14892;SDS011;7538;53.626;9.906;2022-11-20T03:58:10;4.33;;;3.17;;
14892;SDS011;7538;53.626;9.906;2022-11-20T04:00:38;3.67;;;3.33;;
14892;SDS011;7538;53.626;9.906;2022-11-20T04:03:05;4.67;;;3.77;;
14892;SDS011;7538;53.626;9.906;2022-11-20T04:05:33;4.13;;;3.30;;
14892;SDS011;7538;53.626;9.906;2022-11-20T04:08:00;3.83;;;3.50;;
14892;SDS011;7538;53.626;9.906;2022-11-20T04:10:27;5.67;;;4.47;;
14892;SDS011;7538;53.626;9.906;2022-11-20T04:12:54;4.77;;;4.00;;
14892;SDS011;7538;53.626;9.906;2022-11-20T04:15:21;4.00;;;3.20;;
14892;SDS011;7538;53.626;9.906;2022-11-20T04:17:48;5.03;;;4.50;;
14892;SDS011;7538;53.626;9.906;2022-11-20T04:20:15;4.37;;;3.97;;
14892;SDS011;7538;53.626;9.906;2022-11-20T04:22:43;4.80;;;3.97;;
14892;SDS011;7538;53.626;9.906;2022-11-20T04:25:10;5.03;;;3.83;;
14892;SDS011;7538;53.626;9.906;2022-11-20T04:27:37;6.47;;;4.53;;
14892;SDS011;7538;53.626;9.906;2022-11-20T04:30:04;6.80;;;4.30;;
14892;SDS011;7538;53.626;9.906;2022-11-20T04:32:31;8.47;;;5.00;;
14892;SDS011;7538;53.626;9.906;2022-11-20T04:34:58;5.80;;;4.70;;
14892;SDS011;7538;53.626;9.906;2022-11-20T04:37:25;5.27;;;4.30;;
14892;SDS011;7538;53.626;9.906;2022-11-20T04:39:53;4.73;;;4.07;;
14892;SDS011;7538;53.626;9.906;2022-11-20T04:42:20;5.47;;;3.97;;
14892;SDS011;7538;53.626;9.906;2022-11-20T04:44:56;5.87;;;4.30;;
14892;SDS011;7538;53.626;9.906;2022-11-20T04:47:23;6.17;;;4.80;;
14892;SDS011;7538;53.626;9.906;2022-11-20T04:49:50;7.50;;;4.57;;
14892;SDS011;7538;53.626;9.906;2022-11-20T04:52:17;5.30;;;4.70;;
14892;SDS011;7538;53.626;9.906;2022-11-20T04:54:43;4.27;;;3.87;;
14892;SDS011;7538;53.626;9.906;2022-11-20T04:57:13;5.30;;;4.40;;
14892;SDS011;7538;53.626;9.906;2022-11-20T04:59:41;5.40;;;4.00;;
14892;SDS011;7538;53.626;9.906;2022-11-20T05:02:07;4.27;;;3.53;;
14892;SDS011;7538;53.626;9.906;2022-11-20T05:04:34;6.13;;;4.33;;
14892;SDS011;7538;53.626;9.906;2022-11-20T05:07:01;5.30;;;4.30;;
14892;SDS011;7538;53.626;9.906;2022-11-20T05:09:28;5.70;;;4.50;;
14892;SDS011;7538;53.626;9.906;2022-11-20T05:11:56;4.73;;;4.27;;
14892;SDS011;7538;53.626;9.906;2022-11-20T05:14:24;5.17;;;4.33;;
14892;SDS011;7538;53.626;9.906;2022-11-20T05:16:50;5.97;;;4.57;;
14892;SDS011;7538;53.626;9.906;2022-11-20T05:19:17;5.03;;;4.17;;
14892;SDS011;7538;53.626;9.906;2022-11-20T05:21:44;5.23;;;4.53;;
14892;SDS011;7538;53.626;9.906;2022-11-20T05:24:11;5.00;;;4.50;;
14892;SDS011;7538;53.626;9.906;2022-11-20T05:26:38;6.20;;;4.43;;
14892;SDS011;7538;53.626;9.906;2022-11-20T05:29:05;4.80;;;4.40;;
14892;SDS011;7538;53.626;9.906;2022-11-20T05:31:33;6.50;;;5.17;;
14892;SDS011;7538;53.626;9.906;2022-11-20T05:34:01;5.17;;;3.70;;
14892;SDS011;7538;53.626;9.906;2022-11-20T05:36:28;5.33;;;4.63;;
14892;SDS011;7538;53.626;9.906;2022-11-20T05:38:56;5.73;;;4.80;;
14892;SDS011;7538;53.626;9.906;2022-11-20T05:41:22;6.43;;;4.93;;
14892;SDS011;7538;53.626;9.906;2022-11-20T05:43:49;4.97;;;4.47;;
14892;SDS011;7538;53.626;9.906;2022-11-20T05:46:17;5.40;;;4.40;;
14892;SDS011;7538;53.626;9.906;2022-11-20T05:48:47;6.27;;;5.17;;
14892;SDS011;7538;53.626;9.906;2022-11-20T05:51:15;5.63;;;4.20;;
14892;SDS011;7538;53.626;9.906;2022-11-20T05:53:43;6.13;;;4.90;;
14892;SDS011;7538;53.626;9.906;2022-11-20T05:56:10;5.87;;;4.60;;
14892;SDS011;7538;53.626;9.906;2022-11-20T05:58:39;6.93;;;4.93;;
14892;SDS011;7538;53.626;9.906;2022-11-20T06:01:07;5.67;;;5.03;;
14892;SDS011;7538;53.626;9.906;2022-11-20T06:03:36;7.13;;;5.10;;
14892;SDS011;7538;53.626;9.906;2022-11-20T06:06:05;5.93;;;5.00;;
14892;SDS011;7538;53.626;9.906;2022-11-20T06:08:32;5.70;;;4.67;;
14892;SDS011;7538;53.626;9.906;2022-11-20T06:11:02;5.70;;;4.73;;
14892;SDS011;7538;53.626;9.906;2022-11-20T06:13:29;4.53;;;4.03;;
14892;SDS011;7538;53.626;9.906;2022-11-20T06:15:56;6.47;;;5.00;;
14892;SDS011;7538;53.626;9.906;2022-11-20T06:18:25;8.23;;;5.43;;
14892;SDS011;7538;53.626;9.906;2022-11-20T06:20:58;6.33;;;5.27;;
14892;SDS011;7538;53.626;9.906;2022-11-20T06:23:28;6.50;;;5.80;;
14892;SDS011;7538;53.626;9.906;2022-11-20T06:25:56;7.90;;;6.40;;
14892;SDS011;7538;53.626;9.906;2022-11-20T06:28:23;8.00;;;6.60;;
14892;SDS011;7538;53.626;9.906;2022-11-20T06:30:49;7.93;;;5.30;;
14892;SDS011;7538;53.626;9.906;2022-11-20T06:33:16;8.17;;;6.77;;
14892;SDS011;7538;53.626;9.906;2022-11-20T06:35:43;6.93;;;5.93;;
14892;SDS011;7538;53.626;9.906;2022-11-20T06:38:10;9.77;;;6.40;;
14892;SDS011;7538;53.626;9.906;2022-11-20T06:40:40;6.77;;;5.77;;
14892;SDS011;7538;53.626;9.906;2022-11-20T06:43:08;7.10;;;6.13;;
14892;SDS011;7538;53.626;9.906;2022-11-20T06:45:35;7.93;;;6.37;;
14892;SDS011;7538;53.626;9.906;2022-11-20T06:48:02;8.03;;;6.47;;
14892;SDS011;7538;53.626;9.906;2022-11-20T06:50:29;9.57;;;6.30;;
14892;SDS011;7538;53.626;9.906;2022-11-20T06:52:56;8.57;;;7.23;;
14892;SDS011;7538;53.626;9.906;2022-11-20T06:55:26;7.27;;;5.97;;
14892;SDS011;7538;53.626;9.906;2022-11-20T06:57:54;8.83;;;6.60;;
14892;SDS011;7538;53.626;9.906;2022-11-20T07:00:21;8.27;;;6.00;;
14892;SDS011;7538;53.626;9.906;2022-11-20T07:02:47;10.00;;;7.43;;
14892;SDS011;7538;53.626;9.906;2022-11-20T07:05:14;9.97;;;5.70;;
14892;SDS011;7538;53.626;9.906;2022-11-20T07:07:41;9.03;;;7.23;;
14892;SDS011;7538;53.626;9.906;2022-11-20T07:10:09;7.27;;;6.10;;
14892;SDS011;7538;53.626;9.906;2022-11-20T07:12:36;8.07;;;6.80;;
14892;SDS011;7538;53.626;9.906;2022-11-20T07:15:05;9.00;;;6.50;;
14892;SDS011;7538;53.626;9.906;2022-11-20T07:17:32;7.77;;;5.90;;
14892;SDS011;7538;53.626;9.906;2022-11-20T07:19:59;10.37;;;6.37;;
14892;SDS011;7538;53.626;9.906;2022-11-20T07:22:26;9.27;;;6.13;;
14892;SDS011;7538;53.626;9.906;2022-11-20T07:24:52;10.33;;;7.43;;
14892;SDS011;7538;53.626;9.906;2022-11-20T07:27:19;9.60;;;5.37;;
14892;SDS011;7538;53.626;9.906;2022-11-20T07:29:46;8.43;;;6.47;;
14892;SDS011;7538;53.626;9.906;2022-11-20T07:32:14;7.30;;;6.30;;
14892;SDS011;7538;53.626;9.906;2022-11-20T07:34:41;8.57;;;5.93;;
14892;SDS011;7538;53.626;9.906;2022-11-20T07:37:08;6.10;;;5.50;;
14892;SDS011;7538;53.626;9.906;2022-11-20T07:39:35;9.23;;;5.90;;
14892;SDS011;7538;53.626;9.906;2022-11-20T07:42:02;6.03;;;5.03;;
14892;SDS011;7538;53.626;9.906;2022-11-20T07:44:28;5.97;;;5.37;;
14892;SDS011;7538;53.626;9.906;2022-11-20T07:46:55;6.43;;;5.33;;
14892;SDS011;7538;53.626;9.906;2022-11-20T07:49:23;8.07;;;6.33;;
14892;SDS011;7538;53.626;9.906;2022-11-20T07:51:50;8.87;;;7.13;;
14892;SDS011;7538;53.626;9.906;2022-11-20T07:54:18;7.20;;;5.67;;
14892;SDS011;7538;53.626;9.906;2022-11-20T07:56:45;8.93;;;6.73;;
14892;SDS011;7538;53.626;9.906;2022-11-20T07:59:12;8.53;;;6.07;;
14892;SDS011;7538;53.626;9.906;2022-11-20T08:01:39;5.43;;;4.73;;
14892;SDS011;7538;53.626;9.906;2022-11-20T08:04:06;7.53;;;6.13;;
14892;SDS011;7538;53.626;9.906;2022-11-20T08:06:34;6.83;;;5.30;;
14892;SDS011;7538;53.626;9.906;2022-11-20T08:09:01;5.97;;;5.30;;
14892;SDS011;7538;53.626;9.906;2022-11-20T08:11:28;5.27;;;4.60;;
14892;SDS011;7538;53.626;9.906;2022-11-20T08:14:12;4.83;;;4.17;;
14892;SDS011;7538;53.626;9.906;2022-11-20T08:16:39;6.17;;;4.50;;
14892;SDS011;7538;53.626;9.906;2022-11-20T08:19:08;5.43;;;4.80;;
14892;SDS011;7538;53.626;9.906;2022-11-20T08:21:36;8.83;;;6.63;;
14892;SDS011;7538;53.626;9.906;2022-11-20T08:24:04;7.53;;;6.50;;
14892;SDS011;7538;53.626;9.906;2022-11-20T08:26:31;6.97;;;6.27;;
14892;SDS011;7538;53.626;9.906;2022-11-20T08:28:58;5.83;;;5.13;;
14892;SDS011;7538;53.626;9.906;2022-11-20T08:31:25;4.87;;;4.33;;
14892;SDS011;7538;53.626;9.906;2022-11-20T08:33:53;4.97;;;4.20;;
14892;SDS011;7538;53.626;9.906;2022-11-20T08:36:20;6.70;;;4.20;;
14892;SDS011;7538;53.626;9.906;2022-11-20T08:38:50;4.57;;;4.10;;
14892;SDS011;7538;53.626;9.906;2022-11-20T08:41:18;4.77;;;3.93;;
14892;SDS011;7538;53.626;9.906;2022-11-20T08:43:54;5.10;;;4.60;;
14892;SDS011;7538;53.626;9.906;2022-11-20T08:46:22;4.37;;;3.97;;
14892;SDS011;7538;53.626;9.906;2022-11-20T08:48:50;5.70;;;3.60;;
14892;SDS011;7538;53.626;9.906;2022-11-20T08:51:17;4.80;;;4.20;;
14892;SDS011;7538;53.626;9.906;2022-11-20T08:53:45;5.03;;;4.50;;
14892;SDS011;7538;53.626;9.906;2022-11-20T08:56:14;4.90;;;4.50;;
14892;SDS011;7538;53.626;9.906;2022-11-20T08:58:41;5.13;;;4.63;;
14892;SDS011;7538;53.626;9.906;2022-11-20T09:01:08;5.77;;;5.27;;
14892;SDS011;7538;53.626;9.906;2022-11-20T09:03:35;8.77;;;6.10;;
14892;SDS011;7538;53.626;9.906;2022-11-20T09:06:03;7.10;;;5.20;;
14892;SDS011;7538;53.626;9.906;2022-11-20T09:08:32;4.93;;;4.30;;
14892;SDS011;7538;53.626;9.906;2022-11-20T09:10:59;10.03;;;4.63;;
14892;SDS011;7538;53.626;9.906;2022-11-20T09:13:27;6.57;;;4.80;;
14892;SDS011;7538;53.626;9.906;2022-11-20T09:15:55;6.57;;;4.83;;
14892;SDS011;7538;53.626;9.906;2022-11-20T09:18:22;5.97;;;4.63;;
14892;SDS011;7538;53.626;9.906;2022-11-20T09:20:50;6.40;;;4.93;;
14892;SDS011;7538;53.626;9.906;2022-11-20T09:23:17;4.10;;;3.70;;
14892;SDS011;7538;53.626;9.906;2022-11-20T09:25:44;5.63;;;4.90;;
14892;SDS011;7538;53.626;9.906;2022-11-20T09:28:11;5.33;;;4.40;;
14892;SDS011;7538;53.626;9.906;2022-11-20T09:30:39;4.40;;;3.97;;
14892;SDS011;7538;53.626;9.906;2022-11-20T09:33:06;6.27;;;5.13;;
14892;SDS011;7538;53.626;9.906;2022-11-20T09:35:33;5.93;;;5.03;;
14892;SDS011;7538;53.626;9.906;2022-11-20T09:38:04;4.30;;;3.90;;
14892;SDS011;7538;53.626;9.906;2022-11-20T09:40:31;4.53;;;4.07;;
14892;SDS011;7538;53.626;9.906;2022-11-20T09:43:01;6.03;;;5.30;;
14892;SDS011;7538;53.626;9.906;2022-11-20T09:48:31;5.20;;;4.70;;
14892;SDS011;7538;53.626;9.906;2022-11-20T09:51:21;4.80;;;4.30;;
14892;SDS011;7538;53.626;9.906;2022-11-20T09:54:00;5.80;;;4.70;;
14892;SDS011;7538;53.626;9.906;2022-11-20T09:56:36;5.10;;;4.57;;
14892;SDS011;7538;53.626;9.906;2022-11-20T09:59:05;4.30;;;3.90;;
14892;SDS011;7538;53.626;9.906;2022-11-20T10:01:39;4.83;;;4.30;;
14892;SDS011;7538;53.626;9.906;2022-11-20T10:04:10;4.47;;;4.07;;
14892;SDS011;7538;53.626;9.906;2022-11-20T10:06:41;7.27;;;4.63;;
14892;SDS011;7538;53.626;9.906;2022-11-20T10:09:16;4.13;;;3.73;;
14892;SDS011;7538;53.626;9.906;2022-11-20T10:11:51;3.93;;;3.37;;
14892;SDS011;7538;53.626;9.906;2022-11-20T10:14:32;4.93;;;3.77;;
14892;SDS011;7538;53.626;9.906;2022-11-20T10:17:11;5.13;;;4.60;;
14892;SDS011;7538;53.626;9.906;2022-11-20T10:19:50;5.37;;;4.87;;
14892;SDS011;7538;53.626;9.906;2022-11-20T10:22:32;4.40;;;4.00;;
14892;SDS011;7538;53.626;9.906;2022-11-20T10:25:08;5.00;;;4.53;;
14892;SDS011;7538;53.626;9.906;2022-11-20T10:27:54;5.77;;;4.90;;
14892;SDS011;7538;53.626;9.906;2022-11-20T10:30:40;5.50;;;4.93;;
14892;SDS011;7538;53.626;9.906;2022-11-20T10:33:13;5.23;;;4.63;;
14892;SDS011;7538;53.626;9.906;2022-11-20T10:35:44;5.37;;;4.43;;
14892;SDS011;7538;53.626;9.906;2022-11-20T10:38:17;4.70;;;4.10;;
14892;SDS011;7538;53.626;9.906;2022-11-20T10:40:48;4.30;;;3.90;;
14892;SDS011;7538;53.626;9.906;2022-11-20T10:43:18;4.80;;;4.40;;
14892;SDS011;7538;53.626;9.906;2022-11-20T10:45:50;5.33;;;4.70;;
14892;SDS011;7538;53.626;9.906;2022-11-20T10:48:24;4.80;;;4.30;;
14892;SDS011;7538;53.626;9.906;2022-11-20T10:50:57;7.03;;;4.43;;
14892;SDS011;7538;53.626;9.906;2022-11-20T10:53:40;5.63;;;5.00;;
14892;SDS011;7538;53.626;9.906;2022-11-20T10:56:16;4.50;;;4.10;;
14892;SDS011;7538;53.626;9.906;2022-11-20T10:58:48;4.33;;;3.70;;
14892;SDS011;7538;53.626;9.906;2022-11-20T11:01:26;6.50;;;5.23;;
14892;SDS011;7538;53.626;9.906;2022-11-20T11:03:55;5.13;;;4.70;;
14892;SDS011;7538;53.626;9.906;2022-11-20T11:06:25;5.60;;;5.03;;
14892;SDS011;7538;53.626;9.906;2022-11-20T11:08:58;4.60;;;4.20;;
14892;SDS011;7538;53.626;9.906;2022-11-20T11:11:29;5.13;;;4.60;;
14892;SDS011;7538;53.626;9.906;2022-11-20T11:14:04;4.40;;;4.00;;
14892;SDS011;7538;53.626;9.906;2022-11-20T11:16:32;4.97;;;3.83;;
14892;SDS011;7538;53.626;9.906;2022-11-20T11:19:07;4.93;;;4.33;;
14892;SDS011;7538;53.626;9.906;2022-11-20T11:21:39;4.97;;;4.10;;
14892;SDS011;7538;53.626;9.906;2022-11-20T11:24:15;4.20;;;3.80;;
14892;SDS011;7538;53.626;9.906;2022-11-20T11:26:50;4.77;;;3.47;;
14892;SDS011;7538;53.626;9.906;2022-11-20T11:29:22;5.33;;;3.73;;
14892;SDS011;7538;53.626;9.906;2022-11-20T11:32:02;4.03;;;3.60;;
14892;SDS011;7538;53.626;9.906;2022-11-20T11:34:32;3.87;;;3.57;;
14892;SDS011;7538;53.626;9.906;2022-11-20T11:36:59;4.10;;;3.70;;
14892;SDS011;7538;53.626;9.906;2022-11-20T11:39:28;3.63;;;3.33;;
14892;SDS011;7538;53.626;9.906;2022-11-20T11:41:57;4.13;;;3.70;;
14892;SDS011;7538;53.626;9.906;2022-11-20T11:44:27;4.43;;;3.63;;
14892;SDS011;7538;53.626;9.906;2022-11-20T11:47:17;3.53;;;3.23;;
14892;SDS011;7538;53.626;9.906;2022-11-20T11:50:01;4.43;;;3.10;;
14892;SDS011;7538;53.626;9.906;2022-11-20T11:52:42;3.80;;;3.50;;
14892;SDS011;7538;53.626;9.906;2022-11-20T11:55:14;3.23;;;2.93;;
14892;SDS011;7538;53.626;9.906;2022-11-20T11:57:46;3.93;;;3.50;;
14892;SDS011;7538;53.626;9.906;2022-11-20T12:00:18;4.10;;;3.30;;
14892;SDS011;7538;53.626;9.906;2022-11-20T12:02:52;3.87;;;3.37;;
14892;SDS011;7538;53.626;9.906;2022-11-20T12:05:26;3.60;;;3.13;;
14892;SDS011;7538;53.626;9.906;2022-11-20T12:07:56;4.80;;;4.30;;
14892;SDS011;7538;53.626;9.906;2022-11-20T12:10:33;5.40;;;4.00;;
14892;SDS011;7538;53.626;9.906;2022-11-20T12:13:10;4.00;;;3.60;;
14892;SDS011;7538;53.626;9.906;2022-11-20T12:15:46;4.50;;;4.10;;
14892;SDS011;7538;53.626;9.906;2022-11-20T12:18:14;3.90;;;3.47;;
14892;SDS011;7538;53.626;9.906;2022-11-20T12:20:45;3.20;;;2.90;;
14892;SDS011;7538;53.626;9.906;2022-11-20T12:23:33;4.87;;;3.47;;
14892;SDS011;7538;53.626;9.906;2022-11-20T12:26:12;3.90;;;3.60;;
14892;SDS011;7538;53.626;9.906;2022-11-20T12:28:49;2.60;;;2.37;;
14892;SDS011;7538;53.626;9.906;2022-11-20T12:31:28;3.80;;;2.20;;
14892;SDS011;7538;53.626;9.906;2022-11-20T12:34:13;2.53;;;2.10;;
14892;SDS011;7538;53.626;9.906;2022-11-20T12:36:50;2.40;;;2.20;;
14892;SDS011;7538;53.626;9.906;2022-11-20T12:39:28;3.47;;;2.30;;
14892;SDS011;7538;53.626;9.906;2022-11-20T12:42:05;3.53;;;2.83;;
14892;SDS011;7538;53.626;9.906;2022-11-20T12:45:05;1.90;;;1.70;;
14892;SDS011;7538;53.626;9.906;2022-11-20T12:50:40;1.60;;;1.50;;
14892;SDS011;7538;53.626;9.906;2022-11-20T12:53:20;2.03;;;1.77;;
14892;SDS011;7538;53.626;9.906;2022-11-20T12:55:54;2.60;;;2.40;;
14892;SDS011;7538;53.626;9.906;2022-11-20T12:58:25;2.60;;;2.40;;
14892;SDS011;7538;53.626;9.906;2022-11-20T13:01:00;2.50;;;2.30;;
14892;SDS011;7538;53.626;9.906;2022-11-20T13:03:55;2.97;;;2.50;;
14892;SDS011;7538;53.626;9.906;2022-11-20T13:06:32;3.40;;;2.90;;
14892;SDS011;7538;53.626;9.906;2022-11-20T13:09:01;4.00;;;3.47;;
14892;SDS011;7538;53.626;9.906;2022-11-20T13:11:31;4.73;;;3.17;;
14892;SDS011;7538;53.626;9.906;2022-11-20T13:14:12;4.03;;;2.90;;
14892;SDS011;7538;53.626;9.906;2022-11-20T13:16:47;3.97;;;3.07;;
14892;SDS011;7538;53.626;9.906;2022-11-20T13:19:19;3.93;;;2.67;;
14892;SDS011;7538;53.626;9.906;2022-11-20T13:21:48;3.03;;;2.37;;
14892;SDS011;7538;53.626;9.906;2022-11-20T13:24:22;3.33;;;3.00;;
14892;SDS011;7538;53.626;9.906;2022-11-20T13:27:01;4.23;;;3.03;;
14892;SDS011;7538;53.626;9.906;2022-11-20T13:29:44;3.83;;;2.87;;
14892;SDS011;7538;53.626;9.906;2022-11-20T13:32:13;6.83;;;3.80;;
14892;SDS011;7538;53.626;9.906;2022-11-20T13:34:54;5.40;;;3.37;;
14892;SDS011;7538;53.626;9.906;2022-11-20T13:37:26;3.80;;;3.10;;
14892;SDS011;7538;53.626;9.906;2022-11-20T13:40:10;4.50;;;4.03;;
14892;SDS011;7538;53.626;9.906;2022-11-20T13:42:39;3.87;;;3.47;;
14892;SDS011;7538;53.626;9.906;2022-11-20T13:45:11;4.27;;;3.10;;
14892;SDS011;7538;53.626;9.906;2022-11-20T13:47:50;3.97;;;2.90;;
14892;SDS011;7538;53.626;9.906;2022-11-20T13:50:18;3.97;;;2.97;;
14892;SDS011;7538;53.626;9.906;2022-11-20T13:52:49;3.47;;;3.17;;
14892;SDS011;7538;53.626;9.906;2022-11-20T13:55:25;4.07;;;3.40;;
14892;SDS011;7538;53.626;9.906;2022-11-20T13:58:07;4.13;;;3.10;;
14892;SDS011;7538;53.626;9.906;2022-11-20T14:00:48;3.43;;;2.90;;
14892;SDS011;7538;53.626;9.906;2022-11-20T14:03:20;3.80;;;2.90;;
14892;SDS011;7538;53.626;9.906;2022-11-20T14:05:50;4.10;;;2.77;;
14892;SDS011;7538;53.626;9.906;2022-11-20T14:08:23;3.47;;;3.17;;
14892;SDS011;7538;53.626;9.906;2022-11-20T14:11:05;3.27;;;2.70;;
14892;SDS011;7538;53.626;9.906;2022-11-20T14:13:38;4.60;;;2.90;;
14892;SDS011;7538;53.626;9.906;2022-11-20T14:16:05;4.40;;;2.73;;
14892;SDS011;7538;53.626;9.906;2022-11-20T14:18:32;4.50;;;3.23;;
14892;SDS011;7538;53.626;9.906;2022-11-20T14:21:00;5.57;;;4.20;;
14892;SDS011;7538;53.626;9.906;2022-11-20T14:23:27;5.77;;;4.53;;
14892;SDS011;7538;53.626;9.906;2022-11-20T14:25:55;4.20;;;3.77;;
14892;SDS011;7538;53.626;9.906;2022-11-20T14:28:25;3.63;;;3.27;;
14892;SDS011;7538;53.626;9.906;2022-11-20T14:30:54;3.90;;;3.37;;
14892;SDS011;7538;53.626;9.906;2022-11-20T14:33:22;4.47;;;3.30;;
14892;SDS011;7538;53.626;9.906;2022-11-20T14:35:50;4.33;;;3.60;;
14892;SDS011;7538;53.626;9.906;2022-11-20T14:38:21;3.93;;;3.37;;
14892;SDS011;7538;53.626;9.906;2022-11-20T14:40:50;4.57;;;4.03;;
14892;SDS011;7538;53.626;9.906;2022-11-20T14:43:18;4.37;;;3.97;;
14892;SDS011;7538;53.626;9.906;2022-11-20T14:45:52;4.00;;;3.60;;
14892;SDS011;7538;53.626;9.906;2022-11-20T14:48:23;5.37;;;4.00;;
14892;SDS011;7538;53.626;9.906;2022-11-20T14:50:55;4.17;;;3.10;;
14892;SDS011;7538;53.626;9.906;2022-11-20T14:53:22;4.10;;;3.50;;
14892;SDS011;7538;53.626;9.906;2022-11-20T14:55:54;3.63;;;3.03;;
14892;SDS011;7538;53.626;9.906;2022-11-20T14:58:26;5.33;;;3.40;;
14892;SDS011;7538;53.626;9.906;2022-11-20T15:00:57;9.03;;;8.07;;
14892;SDS011;7538;53.626;9.906;2022-11-20T15:03:30;6.40;;;5.80;;
14892;SDS011;7538;53.626;9.906;2022-11-20T15:05:58;5.00;;;4.50;;
14892;SDS011;7538;53.626;9.906;2022-11-20T15:08:25;5.30;;;4.80;;
14892;SDS011;7538;53.626;9.906;2022-11-20T15:10:53;5.40;;;4.80;;
14892;SDS011;7538;53.626;9.906;2022-11-20T15:13:24;4.77;;;4.37;;
14892;SDS011;7538;53.626;9.906;2022-11-20T15:15:55;4.63;;;3.93;;
14892;SDS011;7538;53.626;9.906;2022-11-20T15:18:26;4.93;;;4.43;;
14892;SDS011;7538;53.626;9.906;2022-11-20T15:20:56;6.27;;;4.60;;
14892;SDS011;7538;53.626;9.906;2022-11-20T15:23:23;5.30;;;4.20;;